Time,TemperatureF,DewpointF,PressureIn,WindDirection,WindDirectionDegrees,WindSpeedMPH,WindSpeedGustMPH,Humidity,HourlyPrecipIn,Conditions,Clouds,dailyrainin,SoftwareType,DateUTC
2013-04-28 00:00:00,66.0,21.3,25.84,WSW,254,3.1,5.4,18,0.00,,---,0.00,VWS V13.01,2013-04-28 07:00:00,
2013-04-28 00:20:00,65.8,21.2,25.84,SW,236,3.1,6.3,18,0.00,,---,0.00,VWS V13.01,2013-04-28 07:20:00,
2013-04-28 00:40:00,65.3,20.7,25.84,SW,228,3.1,5.4,18,0.00,,---,0.00,VWS V13.01,2013-04-28 07:40:00,
2013-04-28 01:00:00,64.8,20.3,25.84,SW,236,2.7,4.0,18,0.00,,---,0.00,VWS V13.01,2013-04-28 08:00:00,
2013-04-28 01:20:00,64.0,19.7,25.81,SW,226,0.0,4.0,18,0.00,,---,0.00,VWS V13.01,2013-04-28 08:20:00,
2013-04-28 01:40:00,63.5,19.3,25.81,SW,225,2.7,4.0,18,0.00,,---,0.00,VWS V13.01,2013-04-28 08:40:00,
2013-04-28 02:00:00,62.1,19.3,25.81,SW,216,3.1,4.0,19,0.00,,---,0.00,VWS V13.01,2013-04-28 09:00:00,
2013-04-28 02:20:00,61.2,18.6,25.81,SW,224,3.6,4.5,19,0.00,,---,0.00,VWS V13.01,2013-04-28 09:20:00,
2013-04-28 02:40:00,60.1,17.7,25.81,SW,223,3.6,4.0,19,0.00,,---,0.00,VWS V13.01,2013-04-28 09:40:00,
2013-04-28 03:00:00,59.7,17.4,25.81,SW,222,4.0,4.0,19,0.00,,---,0.00,VWS V13.01,2013-04-28 10:00:00,
2013-04-28 03:20:00,59.0,16.8,25.81,SW,222,3.1,4.0,19,0.00,,---,0.00,VWS V13.01,2013-04-28 10:20:00,
2013-04-28 03:40:00,58.5,16.4,25.81,SW,222,3.6,4.0,19,0.00,,---,0.00,VWS V13.01,2013-04-28 10:40:00,
2013-04-28 04:00:00,57.9,15.9,25.81,SW,221,3.6,4.0,19,0.00,,---,0.00,VWS V13.01,2013-04-28 11:00:00,
2013-04-28 04:20:00,57.4,15.5,25.81,SW,221,3.6,4.0,19,0.00,,---,0.00,VWS V13.01,2013-04-28 11:20:00,
2013-04-28 04:40:00,56.7,16.1,25.81,SW,220,2.7,4.0,20,0.00,,---,0.00,VWS V13.01,2013-04-28 11:40:00,
2013-04-28 05:00:00,56.8,16.2,25.81,SW,218,4.0,4.5,20,0.00,,---,0.00,VWS V13.01,2013-04-28 12:00:00,
2013-04-28 05:20:00,56.7,16.1,25.81,SW,218,3.6,4.0,20,0.00,,---,0.00,VWS V13.01,2013-04-28 12:20:00,
2013-04-28 05:40:00,56.3,15.8,25.81,SW,214,3.1,5.4,20,0.00,,---,0.00,VWS V13.01,2013-04-28 12:40:00,
2013-04-28 06:00:00,55.9,15.5,25.84,SW,215,2.7,4.0,20,0.00,,---,0.00,VWS V13.01,2013-04-28 13:00:00,
2013-04-28 06:20:00,56.5,15.9,25.81,SW,216,3.6,4.5,20,0.00,,---,0.00,VWS V13.01,2013-04-28 13:20:00,
2013-04-28 06:40:00,57.6,15.6,25.84,SW,216,0.0,4.0,19,0.00,,---,0.00,VWS V13.01,2013-04-28 13:40:00,
2013-04-28 07:00:00,59.4,17.1,25.84,SW,215,0.0,0.0,19,0.00,,---,0.00,VWS V13.01,2013-04-28 14:00:00,
2013-04-28 07:20:00,63.5,19.3,25.84,SE,131,0.0,4.0,18,0.00,,---,0.00,VWS V13.01,2013-04-28 14:20:00,
2013-04-28 07:40:00,66.6,20.4,25.84,SE,131,0.0,0.0,17,0.00,,---,0.00,VWS V13.01,2013-04-28 14:40:00,
2013-04-28 08:00:00,68.9,22.3,25.84,SE,126,0.0,4.0,17,0.00,,---,0.00,VWS V13.01,2013-04-28 15:00:00,
2013-04-28 08:20:00,70.0,23.2,25.84,North,357,2.2,4.0,17,0.00,,---,0.00,VWS V13.01,2013-04-28 15:20:00,
2013-04-28 08:40:00,70.5,23.6,25.84,NE,47,4.0,6.3,17,0.00,,---,0.00,VWS V13.01,2013-04-28 15:40:00,
2013-04-28 09:00:00,71.4,24.4,25.84,NNE,23,5.4,10.5,17,0.00,,---,0.00,VWS V13.01,2013-04-28 16:00:00,
2013-04-28 09:20:00,72.5,23.8,25.84,NE,35,3.1,8.3,16,0.00,,---,0.00,VWS V13.01,2013-04-28 16:20:00,
2013-04-28 09:40:00,73.6,24.7,25.84,NE,46,3.1,8.1,16,0.00,,---,0.00,VWS V13.01,2013-04-28 16:40:00,
2013-04-28 10:00:00,74.8,25.7,25.84,WSW,256,2.7,8.7,16,0.00,,---,0.00,VWS V13.01,2013-04-28 17:00:00,
2013-04-28 10:20:00,75.0,25.8,25.81,WNW,303,2.7,8.1,16,0.00,,---,0.00,VWS V13.01,2013-04-28 17:20:00,
2013-04-28 10:40:00,76.1,25.1,25.84,WNW,287,5.8,8.3,15,0.00,,---,0.00,VWS V13.01,2013-04-28 17:40:00,
2013-04-28 11:00:00,77.2,26.0,25.84,SW,228,3.1,6.3,15,0.00,,---,0.00,VWS V13.01,2013-04-28 18:00:00,
2013-04-28 11:20:00,78.4,27.0,25.81,SW,229,2.2,8.3,15,0.00,,---,0.00,VWS V13.01,2013-04-28 18:20:00,
2013-04-28 11:40:00,79.9,28.1,25.81,NNW,339,4.9,12.3,15,0.00,,---,0.00,VWS V13.01,2013-04-28 18:40:00,
2013-04-28 12:00:00,81.5,27.8,25.81,WNW,303,4.0,11.0,14,0.00,,---,0.00,VWS V13.01,2013-04-28 19:00:00,
2013-04-28 12:20:00,83.3,29.2,25.81,NW,323,5.8,10.5,14,0.00,,---,0.00,VWS V13.01,2013-04-28 19:20:00,
2013-04-28 12:40:00,84.7,28.5,25.81,West,268,7.6,10.5,13,0.00,,---,0.00,VWS V13.01,2013-04-28 19:40:00,
2013-04-28 13:00:00,86.5,29.9,25.78,WNW,292,8.3,8.3,13,0.00,,---,0.00,VWS V13.01,2013-04-28 20:00:00,
2013-04-28 13:20:00,87.8,30.9,25.78,NNW,334,4.9,10.1,13,0.00,,---,0.00,VWS V13.01,2013-04-28 20:20:00,
2013-04-28 13:40:00,87.4,30.6,25.78,ENE,63,3.1,10.1,13,0.00,,---,0.00,VWS V13.01,2013-04-28 20:40:00,
2013-04-28 14:00:00,87.3,30.5,25.75,SE,127,5.8,8.7,13,0.00,,---,0.00,VWS V13.01,2013-04-28 21:00:00,
2013-04-28 14:20:00,86.7,30.0,25.75,SE,124,2.7,10.5,13,0.00,,---,0.00,VWS V13.01,2013-04-28 21:20:00,
2013-04-28 14:40:00,88.2,31.2,25.75,South,170,2.7,8.3,13,0.00,,---,0.00,VWS V13.01,2013-04-28 21:40:00,
2013-04-28 15:00:00,86.9,30.2,25.72,West,276,2.2,8.7,13,0.00,,---,0.00,VWS V13.01,2013-04-28 22:00:00,
2013-04-28 15:20:00,89.1,31.9,25.72,WNW,295,6.3,11.0,13,0.00,,---,0.00,VWS V13.01,2013-04-28 22:20:00,
2013-04-28 15:40:00,89.4,32.2,25.72,West,281,4.9,10.1,13,0.00,,---,0.00,VWS V13.01,2013-04-28 22:40:00,
2013-04-28 16:00:00,88.0,31.0,25.72,NE,47,5.8,10.1,13,0.00,,---,0.00,VWS V13.01,2013-04-28 23:00:00,
2013-04-28 16:20:00,88.0,31.0,25.72,SSE,150,2.2,6.7,13,0.00,,---,0.00,VWS V13.01,2013-04-28 23:20:00,
2013-04-28 16:40:00,87.3,30.5,25.72,NNE,32,3.6,6.3,13,0.00,,---,0.00,VWS V13.01,2013-04-28 23:40:00,
2013-04-28 17:00:00,86.7,30.0,25.72,NE,53,3.6,8.3,13,0.00,,---,0.00,VWS V13.01,2013-04-29 00:00:00,
2013-04-28 17:20:00,85.8,29.4,25.69,ENE,69,3.6,7.6,13,0.00,,---,0.00,VWS V13.01,2013-04-29 00:20:00,
2013-04-28 17:40:00,84.2,28.1,25.69,West,272,3.6,9.6,13,0.00,,---,0.00,VWS V13.01,2013-04-29 00:40:00,
2013-04-28 18:00:00,83.7,29.5,25.69,NE,38,5.8,5.8,14,0.00,,---,0.00,VWS V13.01,2013-04-29 01:00:00,
2013-04-28 18:20:00,81.9,28.0,25.69,NW,326,3.1,8.3,14,0.00,,---,0.00,VWS V13.01,2013-04-29 01:20:00,
2013-04-28 18:40:00,80.1,28.3,25.69,NNW,335,3.6,12.8,15,0.00,,---,0.00,VWS V13.01,2013-04-29 01:40:00,
2013-04-28 19:00:00,79.0,27.4,25.72,NNW,345,5.4,9.2,15,0.00,,---,0.00,VWS V13.01,2013-04-29 02:00:00,
2013-04-28 19:20:00,77.5,26.3,25.72,NW,325,3.1,6.3,15,0.00,,---,0.00,VWS V13.01,2013-04-29 02:20:00,
2013-04-28 19:40:00,76.3,25.3,25.72,NW,304,3.1,4.9,15,0.00,,---,0.00,VWS V13.01,2013-04-29 02:40:00,
2013-04-28 20:00:00,74.3,25.2,25.72,SW,223,3.1,5.8,16,0.00,,---,0.00,VWS V13.01,2013-04-29 03:00:00,
2013-04-28 20:20:00,72.9,24.1,25.69,SW,229,2.7,4.9,16,0.00,,---,0.00,VWS V13.01,2013-04-29 03:20:00,
2013-04-28 20:40:00,72.0,23.4,25.72,West,261,2.7,4.0,16,0.00,,---,0.00,VWS V13.01,2013-04-29 03:40:00,
2013-04-28 21:00:00,71.2,24.2,25.72,West,266,5.8,7.2,17,0.00,,---,0.00,VWS V13.01,2013-04-29 04:00:00,
2013-04-28 21:20:00,71.1,24.1,25.72,WSW,257,4.0,7.2,17,0.00,,---,0.00,VWS V13.01,2013-04-29 04:20:00,
2013-04-28 21:40:00,70.7,23.8,25.75,NW,304,3.1,6.7,17,0.00,,---,0.00,VWS V13.01,2013-04-29 04:40:00,
2013-04-28 22:00:00,70.3,23.5,25.75,WNW,287,5.8,8.3,17,0.00,,---,0.00,VWS V13.01,2013-04-29 05:00:00,
2013-04-28 22:20:00,69.8,23.1,25.75,WNW,296,2.7,7.2,17,0.00,,---,0.00,VWS V13.01,2013-04-29 05:20:00,
2013-04-28 22:40:00,68.9,22.3,25.72,SW,225,3.6,4.9,17,0.00,,---,0.00,VWS V13.01,2013-04-29 05:40:00,
2013-04-28 23:00:00,68.0,21.6,25.75,WSW,244,4.0,5.8,17,0.00,,---,0.00,VWS V13.01,2013-04-29 06:00:00,
2013-04-28 23:20:00,67.6,21.3,25.75,SW,222,3.6,4.9,17,0.00,,---,0.00,VWS V13.01,2013-04-29 06:20:00,
2013-04-28 23:40:00,66.9,20.7,25.75,SW,218,3.6,4.9,17,0.00,,---,0.00,VWS V13.01,2013-04-29 06:40:00,